ADDS METAR Data INFO
IDs: Format: Raw Decoded Include TAF

Data at: 1027 UTC 16 Aug 2018

METAR for:KRZT (Chillicothe/Ross Cnt, OH, US)
Text:KRZT 161015Z AUTO 00000KT 10SM SCT033 SCT048 SCT110 20/20 A3007 RMK AO2
Temperature: 20.0°C ( 68°F)
Dewpoint: 20.0°C ( 68°F) [RH = 100%]
Pressure (altimeter):30.07 inches Hg (1018.4 mb)
Winds:calm
Visibility:10 or more sm (16+ km)
Ceiling:at least 12,000 feet AGL
Clouds: scattered clouds at 3300 feet AGL, scattered clouds at 4800 feet AGL, scattered clouds at 11000 feet AGL
QC Flag:automated observation with no human augmentation